Latest Coastal Weather Observations for Williamtown

IDN60701

Issued at 7:12 pm EDT Sunday 7 March 2021 (issued every 10 minutes, with the page automatically refreshed every 10 minutes)

About coastal observations | Map of coastal stations | Coastal observations for NSW | Marine services | Other Formats
Station Details ID: 061078 Name: WILLIAMTOWN RAAF Lat: -32.79 Lon: 151.84 Height: 7.5 m
Data from the previous 72 hours. | See also: Recent months at Williamtown
Date/Time
EDT
Wind Sea
Height
m
Swell Vis
km
Cloud Weather Temp
°C
Press
MSL
hPa
Rain since
9am
mm
Dir  Spd
kts
Gust
kts
Height
m
Period
s
Dir
07/07:00pm ENE 11 16 - - - - 10 Clear - 22.7 1011.9 0.0
07/06:30pm ENE 12 20 - - - - 10 - - 23.4 1011.9 0.0
07/06:00pm ENE 11 16 - - - - 10 - - 24.2 1011.8 0.0
07/05:30pm ENE 11 16 - - - - 10 - - 24.4 1011.6 0.0
07/05:00pm ENE 11 15 - - - - 10 - - 25.0 1011.5 0.0
07/04:30pm ENE 11 14 - - - - 10 - - 25.0 1011.5 0.0
07/04:00pm ENE 9 14 - - - - 10 Partly cloudy - 25.2 1011.8 0.0
07/03:30pm E 10 15 - - - - 10 - - 25.7 1011.9 0.0
07/03:00pm E 11 18 - - - - 10 Mostly clear - 25.0 1012.2 0.0
07/02:30pm ESE 11 15 - - - - 10 Partly cloudy - 24.3 1012.7 0.0
07/02:00pm ESE 7 12 - - - - 10 Partly cloudy - 25.5 1013.0 0.0
07/01:30pm E 6 10 - - - - 10 Partly cloudy - 24.8 1013.2 0.0
07/01:00pm NNE 7 12 - - - - 10 Partly cloudy - 24.4 1013.9 0.0
07/12:30pm ENE 7 10 - - - - 10 Partly cloudy - 24.3 1014.1 0.0
07/12:00pm E 8 11 - - - - 10 Partly cloudy - 25.5 1014.6 0.0
07/11:30am NE 5 10 - - - - 10 Partly cloudy - 24.1 1015.0 0.0
07/11:00am NE 7 10 - - - - 10 Partly cloudy - 24.2 1015.3 0.0
07/10:30am NE 4 10 - - - - 10 - - 23.2 1015.4 0.0
07/10:00am NNE 4 7 - - - - 10 - - 22.4 1015.5 0.0
07/09:30am NNW 5 6 - - - - 10 - - 21.2 1015.4 0.0
07/09:00am WNW 5 6 - - - - 10 - - 19.3 1015.3 0.8
07/08:30am WNW 5 6 - - - - 10 - - 17.7 1015.2 0.8
07/08:00am W 4 5 - - - - 10 - - 16.5 1015.1 0.8
07/07:30am NW 4 5 - - - - 10 Partly cloudy - 15.2 1015.0 0.8
07/07:00am NW 5 6 - - - - 10 Partly cloudy - 14.2 1014.6 0.8
07/06:30am CALM 0 0 - - - - 10 Partly cloudy - 14.0 1014.2 0.8
07/06:00am CALM 0 0 - - - - 10 Mostly clear - 14.0 1013.9 0.8
07/05:30am CALM 0 0 - - - - 10 Partly cloudy - 14.4 1013.9 0.8
07/05:00am CALM 0 0 - - - - 10 - - 14.8 1013.7 0.8
07/04:52am CALM 0 0 - - - - 10 - - 14.8 1013.8 0.8
07/04:30am WNW 3 4 - - - - 10 Partly cloudy - 15.1 1013.9 0.8
07/04:08am WNW 2 5 - - - - 6 Partly cloudy - 15.1 1013.9 0.8
07/04:00am NW 2 4 - - - - 10 Partly cloudy - 15.3 1013.9 0.8
07/03:55am NW 3 5 - - - - 10 Partly cloudy - 15.3 1013.9 0.8
07/03:40am NW 3 4 - - - - 6 Partly cloudy - 15.4 1013.9 0.8
07/03:30am NW 4 5 - - - - 10 Partly cloudy - 15.4 1014.0 0.8
07/03:00am WNW 5 5 - - - - 10 - - 15.2 1014.0 0.8
07/02:43am NW 4 5 - - - - 10 Partly cloudy - 15.4 1014.0 0.8
07/02:30am WNW 4 4 - - - - 5 Partly cloudy - 15.5 1013.9 0.8
07/02:24am WNW 4 5 - - - - 6 Partly cloudy - 15.6 1013.9 0.8
07/02:00am NW 4 5 - - - - 10 Partly cloudy - 16.2 1014.1 0.8
07/01:50am WNW 5 5 - - - - 10 Partly cloudy - 16.3 1014.2 0.8
07/01:39am WNW 3 5 - - - - 6 Partly cloudy - 16.5 1014.3 0.8
07/01:30am WNW 4 5 - - - - 10 Partly cloudy - 16.6 1014.4 0.8
07/01:00am WNW 4 5 - - - - 10 Partly cloudy - 16.8 1014.5 0.8
07/12:30am N 3 5 - - - - 10 Partly cloudy - 16.8 1014.5 0.8
07/12:00am N 3 4 - - - - 10 Mostly cloudy - 16.8 1014.5 0.8
 
Date/Time
EDT
Wind Sea
Height
m
Swell Vis
km
Cloud Weather Temp
°C
Press
MSL
hPa
Rain since
9am
mm
Dir  Spd
kts
Gust
kts
Height
m
Period
s
Dir
06/11:30pm NW 3 6 - - - - 10 - - 17.1 1014.6 0.8
06/11:00pm SE 7 8 - - - - 10 Partly cloudy - 18.4 1014.4 0.8
06/10:30pm SE 7 7 - - - - 10 Partly cloudy - 19.0 1014.5 0.8
06/10:00pm CALM 0 2 - - - - 10 Partly cloudy - 19.0 1014.5 0.8
06/09:30pm ESE 5 6 - - - - 10 Partly cloudy - 19.3 1014.3 0.8
06/09:00pm SE 6 8 - - - - 10 Mostly clear - 18.7 1013.9 0.8
06/08:30pm SE 7 8 - - - - 10 Partly cloudy - 18.9 1013.5 0.8
06/08:00pm SE 9 14 - - - - 10 Partly cloudy - 19.7 1013.2 0.8
06/07:30pm SSE 10 13 - - - - 10 Partly cloudy - 20.3 1012.8 0.8
06/07:00pm SSE 11 15 - - - - 10 Partly cloudy - 20.9 1012.5 0.8
06/06:30pm SSE 12 15 - - - - 10 Partly cloudy - 21.6 1012.3 0.8
06/06:00pm SSE 12 16 - - - - 10 Partly cloudy - 21.6 1012.2 0.8
06/05:30pm SSE 13 18 - - - - 10 Partly cloudy - 22.3 1012.0 0.8
06/05:00pm SE 14 18 - - - - 10 Partly cloudy - 22.6 1011.7 0.8
06/04:30pm SSE 15 19 - - - - 10 Partly cloudy - 23.1 1011.6 0.8
06/04:00pm SSE 15 19 - - - - 10 Partly cloudy - 23.7 1011.4 0.8
06/03:30pm SSE 13 16 - - - - 10 Partly cloudy - 23.1 1011.7 0.8
06/03:00pm S 12 17 - - - - 10 Mostly cloudy - 22.4 1011.9 0.8
06/02:30pm SE 13 17 - - - - 10 Partly cloudy - 23.2 1011.8 0.8
06/02:00pm SSE 11 16 - - - - 10 Partly cloudy - 22.7 1012.1 0.8
06/01:30pm S 12 17 - - - - 10 Partly cloudy - 22.5 1012.2 0.6
06/01:00pm SSE 12 18 - - - - 10 Partly cloudy - 23.2 1012.3 0.6
06/12:30pm SSW 6 8 - - - - 10 Partly cloudy - 21.2 1012.5 0.6
06/12:00pm SW 5 7 - - - - 10 Cloudy - 20.8 1012.8 0.6
06/11:30am SSW 5 7 - - - - 10 Cloudy - 19.8 1013.0 0.6
06/11:00am S 9 13 - - - - 10 Partly cloudy - 19.2 1012.9 0.6
06/10:30am S 8 12 - - - - 7 Partly cloudy - 18.5 1012.9 0.6
06/10:00am SSW 11 16 - - - - 10 Partly cloudy - 19.8 1012.6 0.0
06/09:30am SW 9 14 - - - - 10 Partly cloudy - 19.2 1012.3 0.0
06/09:00am SW 8 10 - - - - 10 Cloudy Rain 18.4 1012.0 3.8
06/08:30am SW 6 8 - - - - 10 Partly cloudy - 17.5 1011.7 3.8
06/08:00am SW 6 7 - - - - 10 Partly cloudy - 17.3 1011.3 3.6
06/07:30am W 5 7 - - - - 10 Partly cloudy - 17.3 1011.1 3.4
06/07:00am WNW 5 6 - - - - 10 Partly cloudy - 17.5 1010.6 3.4
06/06:30am WNW 6 7 - - - - 10 Partly cloudy - 17.5 1010.5 3.4
06/06:00am W 6 8 - - - - 9 Cloudy Showers 17.5 1010.1 3.4
06/05:30am W 8 9 - - - - 10 Partly cloudy - 17.5 1010.0 2.8
06/05:00am WSW 7 9 - - - - 9 Partly cloudy - 17.5 1009.9 2.2
06/04:30am S 5 7 - - - - 10 Partly cloudy - 17.7 1009.8 1.6
06/04:00am WSW 5 8 - - - - 10 Partly cloudy - 17.9 1009.8 1.2
06/03:30am WSW 4 6 - - - - 10 Partly cloudy - 18.2 1009.8 0.4
06/03:00am SW 2 4 - - - - 10 Cloudy - 18.3 1009.7 0.4
06/02:30am S 8 10 - - - - 10 Partly cloudy - 18.4 1009.9 0.4
06/02:00am S 8 14 - - - - 8 Partly cloudy - 18.4 1010.2 0.4
06/01:30am CALM 0 0 - - - - 10 Partly cloudy - 19.0 1010.2 0.0
06/01:00am SE 7 10 - - - - 10 Partly cloudy - 18.8 1010.5 0.0
06/12:30am SSE 11 14 - - - - 10 Partly cloudy - 19.0 1010.6 0.0
06/12:06am S 11 20 - - - - 10 Cloudy - 20.4 1010.4 0.0
06/12:00am S 10 15 - - - - 10 Cloudy - 20.6 1010.3 0.0
 
Date/Time
EDT
Wind Sea
Height
m
Swell Vis
km
Cloud Weather Temp
°C
Press
MSL
hPa
Rain since
9am
mm
Dir  Spd
kts
Gust
kts
Height
m
Period
s
Dir
05/11:30pm SSE 10 15 - - - - 10 Partly cloudy - 20.9 1010.3 0.0
05/11:00pm SSE 8 12 - - - - 10 Partly cloudy - 21.0 1010.2 0.0
05/10:30pm SE 10 14 - - - - 10 Cloudy - 21.2 1010.2 0.0
05/10:00pm SSE 10 15 - - - - 10 Cloudy - 21.2 1010.1 0.0
05/09:30pm SSE 10 13 - - - - 10 Cloudy - 21.2 1010.0 0.0
05/09:00pm SSE 10 14 - - - - 10 Cloudy - 21.2 1009.7 0.0
05/08:30pm SSE 10 15 - - - - 10 Cloudy - 21.2 1009.2 0.0
05/08:00pm SSE 8 10 - - - - 10 Cloudy - 21.2 1008.8 0.0
05/07:30pm SSE 10 14 - - - - 10 Partly cloudy - 21.2 1008.6 0.0
05/07:00pm SSE 9 14 - - - - 10 Cloudy - 21.3 1008.3 0.0
05/06:30pm SSE 13 16 - - - - 10 Cloudy - 21.7 1008.1 0.0
05/06:00pm SSE 15 19 - - - - 10 Cloudy - 22.1 1007.9 0.0
05/05:30pm SSE 15 18 - - - - 10 Partly cloudy - 22.2 1008.0 0.0
05/05:00pm SSE 16 23 - - - - 10 Partly cloudy - 22.5 1007.8 0.0
05/04:30pm SSE 18 21 - - - - 10 Partly cloudy - 22.9 1007.6 0.0
05/04:00pm S 17 21 - - - - 10 Partly cloudy - 22.9 1007.7 0.0
05/03:30pm SSE 18 24 - - - - 10 Partly cloudy - 23.6 1007.6 0.0
05/03:00pm SSE 19 23 - - - - 10 Cloudy - 23.4 1007.7 0.0
05/02:30pm S 18 23 - - - - 10 Mostly cloudy - 23.6 1007.8 0.0
05/02:00pm S 19 24 - - - - 10 Partly cloudy - 23.2 1007.9 0.0
05/01:30pm S 15 23 - - - - 10 Mostly cloudy - 24.9 1007.7 0.0
05/01:00pm S 16 21 - - - - 10 Mostly clear - 26.0 1007.6 0.0
05/12:30pm S 17 21 - - - - 10 Mostly clear - 24.5 1007.6 0.0
05/12:00pm SSW 15 21 - - - - 10 Cloudy - 25.2 1007.6 0.0
05/11:30am SSW 11 17 - - - - 10 Partly cloudy - 24.5 1007.6 0.0
05/11:00am SW 10 15 - - - - 10 Partly cloudy - 24.4 1007.6 0.0
05/10:30am SW 11 15 - - - - 10 Mostly clear - 24.8 1007.4 0.0
05/10:00am W 8 11 - - - - 10 Mostly clear - 24.0 1007.2 0.0
05/09:30am WNW 8 11 - - - - 10 Mostly clear - 22.6 1007.1 0.0
05/09:00am WNW 10 13 - - - - 10 Mostly clear - 21.5 1007.0 0.0
05/08:30am W 10 15 - - - - 10 Mostly clear - 20.1 1007.0 0.0
05/08:00am W 10 15 - - - - 10 Mostly clear - 18.6 1006.7 0.0
05/07:30am WNW 10 14 - - - - 10 Mostly clear - 17.3 1006.3 0.0
05/07:00am WNW 9 11 - - - - 10 - - 15.8 1005.9 0.0
05/06:30am WNW 9 11 - - - - 10 - - 15.9 1005.6 0.0
05/06:00am WNW 9 11 - - - - 10 - - 16.2 1005.2 0.0
05/05:30am WNW 7 9 - - - - 10 - - 16.2 1005.1 0.0
05/05:00am NW 8 9 - - - - 10 - - 16.3 1005.0 0.0
05/04:30am WNW 8 10 - - - - 10 - - 16.4 1005.0 0.0
05/04:00am NW 7 8 - - - - 10 - - 16.6 1005.1 0.0
05/03:30am NW 6 8 - - - - 10 - - 16.9 1005.1 0.0
05/03:00am NW 6 8 - - - - 10 - - 16.5 1005.3 0.0
05/02:30am NW 7 8 - - - - 10 - - 16.6 1005.7 0.0
05/02:00am NNW 4 5 - - - - 10 - - 15.7 1006.0 0.0
05/01:30am CALM 0 0 - - - - 10 - - 16.4 1006.5 0.0
05/01:00am N 2 5 - - - - 10 - - 17.1 1006.8 0.0
05/12:30am N 5 6 - - - - 10 - - 17.6 1007.0 0.0
05/12:00am N 4 5 - - - - 10 - - 18.0 1007.1 0.0
 
Date/Time
EDT
Wind Sea
Height
m
Swell Vis
km
Cloud Weather Temp
°C
Press
MSL
hPa
Rain since
9am
mm
Dir  Spd
kts
Gust
kts
Height
m
Period
s
Dir
04/11:30pm N 4 6 - - - - 10 - - 18.6 1007.5 0.0
04/11:00pm NNE 7 8 - - - - 10 - - 19.2 1007.7 0.0
04/10:30pm N 7 9 - - - - 10 - - 19.5 1008.1 0.0
04/10:00pm NNE 7 10 - - - - 10 - - 20.3 1008.3 0.0
04/09:30pm NNE 8 12 - - - - 10 - - 20.6 1008.4 0.0
04/09:00pm NNE 8 13 - - - - 10 - - 20.9 1008.4 0.0
04/08:30pm NE 8 14 - - - - 10 - - 21.3 1008.3 0.0
04/08:00pm NE 8 11 - - - - 10 - - 21.3 1008.2 0.0
04/07:30pm ENE 8 12 - - - - 10 - - 21.9 1008.2 0.0

Other formats

Comma delimited format used in spreadsheet applications
http://www.bom.gov.au/fwo/IDN60701/IDN60701.94776.axf

JavaScript Object Notation format (JSON) in row-major order
http://www.bom.gov.au/fwo/IDN60701/IDN60701.94776.json

Data quality

Most of these data are generated automatically and are frequently updated. Quality checks on data are not normally performed. It is possible for incorrect values to appear. Refer to information at About Latest Weather Observations and please check the disclaimer before using these data.